sensor_id;sensor_type;location;lat;lon;timestamp;P1;durP1;ratioP1;P2;durP2;ratioP2
32106;SDS011;18622;51.998;10.440;2023-05-07T06:03:28;12.37;;;8.67;;
32106;SDS011;18622;51.998;10.440;2023-05-07T06:05:56;11.60;;;8.93;;
32106;SDS011;18622;51.998;10.440;2023-05-07T06:08:24;11.50;;;9.50;;
32106;SDS011;18622;51.998;10.440;2023-05-07T06:10:52;12.43;;;9.43;;
32106;SDS011;18622;51.998;10.440;2023-05-07T06:13:19;11.57;;;9.17;;
32106;SDS011;18622;51.998;10.440;2023-05-07T06:15:47;11.90;;;9.53;;
32106;SDS011;18622;51.998;10.440;2023-05-07T06:18:16;10.82;;;8.83;;
32106;SDS011;18622;51.998;10.440;2023-05-07T06:20:44;11.33;;;8.13;;
32106;SDS011;18622;51.998;10.440;2023-05-07T06:23:11;10.37;;;8.00;;
32106;SDS011;18622;51.998;10.440;2023-05-07T06:25:40;8.08;;;7.20;;
32106;SDS011;18622;51.998;10.440;2023-05-07T06:28:08;7.73;;;6.93;;
32106;SDS011;18622;51.998;10.440;2023-05-07T06:30:36;7.57;;;6.67;;
32106;SDS011;18622;51.998;10.440;2023-05-07T06:33:04;7.67;;;6.87;;
32106;SDS011;18622;51.998;10.440;2023-05-07T06:35:32;8.43;;;7.27;;
32106;SDS011;18622;51.998;10.440;2023-05-07T06:38:00;8.50;;;7.50;;
32106;SDS011;18622;51.998;10.440;2023-05-07T06:40:28;9.43;;;7.57;;
32106;SDS011;18622;51.998;10.440;2023-05-07T06:42:56;10.77;;;9.33;;
32106;SDS011;18622;51.998;10.440;2023-05-07T06:45:23;9.97;;;8.87;;
32106;SDS011;18622;51.998;10.440;2023-05-07T06:47:51;11.75;;;9.98;;
32106;SDS011;18622;51.998;10.440;2023-05-07T06:50:19;9.30;;;8.27;;
32106;SDS011;18622;51.998;10.440;2023-05-07T06:52:47;8.83;;;7.93;;
32106;SDS011;18622;51.998;10.440;2023-05-07T06:55:15;8.53;;;7.63;;
32106;SDS011;18622;51.998;10.440;2023-05-07T06:57:42;9.33;;;7.97;;
32106;SDS011;18622;51.998;10.440;2023-05-07T07:00:10;11.10;;;9.37;;
32106;SDS011;18622;51.998;10.440;2023-05-07T07:02:39;9.77;;;8.77;;
32106;SDS011;18622;51.998;10.440;2023-05-07T07:05:06;9.30;;;8.30;;
32106;SDS011;18622;51.998;10.440;2023-05-07T07:07:34;11.33;;;8.23;;
32106;SDS011;18622;51.998;10.440;2023-05-07T07:10:02;14.37;;;12.27;;
32106;SDS011;18622;51.998;10.440;2023-05-07T07:12:30;13.13;;;11.10;;
32106;SDS011;18622;51.998;10.440;2023-05-07T07:14:58;11.00;;;9.90;;
32106;SDS011;18622;51.998;10.440;2023-05-07T07:17:26;10.77;;;9.67;;
32106;SDS011;18622;51.998;10.440;2023-05-07T07:19:54;11.33;;;9.73;;
32106;SDS011;18622;51.998;10.440;2023-05-07T07:22:22;13.10;;;9.70;;
32106;SDS011;18622;51.998;10.440;2023-05-07T07:24:49;11.54;;;10.06;;
32106;SDS011;18622;51.998;10.440;2023-05-07T07:27:17;10.23;;;9.13;;
32106;SDS011;18622;51.998;10.440;2023-05-07T07:29:45;11.43;;;10.23;;
32106;SDS011;18622;51.998;10.440;2023-05-07T07:32:13;12.43;;;10.70;;
32106;SDS011;18622;51.998;10.440;2023-05-07T07:34:41;13.73;;;10.77;;
32106;SDS011;18622;51.998;10.440;2023-05-07T07:37:09;13.10;;;9.63;;
32106;SDS011;18622;51.998;10.440;2023-05-07T07:39:37;13.87;;;11.43;;
32106;SDS011;18622;51.998;10.440;2023-05-07T07:42:05;13.53;;;11.47;;
32106;SDS011;18622;51.998;10.440;2023-05-07T07:44:33;13.07;;;10.80;;
32106;SDS011;18622;51.998;10.440;2023-05-07T07:47:01;12.50;;;10.73;;
32106;SDS011;18622;51.998;10.440;2023-05-07T07:49:28;13.80;;;11.00;;
32106;SDS011;18622;51.998;10.440;2023-05-07T07:51:56;11.50;;;10.30;;
32106;SDS011;18622;51.998;10.440;2023-05-07T07:54:25;14.25;;;10.50;;
32106;SDS011;18622;51.998;10.440;2023-05-07T07:56:52;12.87;;;10.43;;
32106;SDS011;18622;51.998;10.440;2023-05-07T07:59:21;10.60;;;9.50;;
32106;SDS011;18622;51.998;10.440;2023-05-07T08:01:48;11.30;;;9.77;;
32106;SDS011;18622;51.998;10.440;2023-05-07T08:04:18;10.95;;;9.68;;
32106;SDS011;18622;51.998;10.440;2023-05-07T08:06:46;13.30;;;9.93;;
32106;SDS011;18622;51.998;10.440;2023-05-07T08:09:13;12.80;;;9.30;;
32106;SDS011;18622;51.998;10.440;2023-05-07T08:11:42;11.97;;;10.68;;
32106;SDS011;18622;51.998;10.440;2023-05-07T08:14:10;12.33;;;9.50;;
32106;SDS011;18622;51.998;10.440;2023-05-07T08:16:38;10.82;;;9.08;;
32106;SDS011;18622;51.998;10.440;2023-05-07T08:19:06;10.53;;;8.87;;
32106;SDS011;18622;51.998;10.440;2023-05-07T08:21:34;10.70;;;8.97;;
32106;SDS011;18622;51.998;10.440;2023-05-07T08:24:01;10.18;;;9.08;;
32106;SDS011;18622;51.998;10.440;2023-05-07T08:26:29;13.60;;;10.37;;
32106;SDS011;18622;51.998;10.440;2023-05-07T08:28:57;12.67;;;9.03;;
32106;SDS011;18622;51.998;10.440;2023-05-07T08:31:25;16.23;;;9.57;;
32106;SDS011;18622;51.998;10.440;2023-05-07T08:33:53;13.10;;;9.17;;
32106;SDS011;18622;51.998;10.440;2023-05-07T08:36:21;10.60;;;9.50;;
32106;SDS011;18622;51.998;10.440;2023-05-07T08:38:48;10.53;;;8.60;;
32106;SDS011;18622;51.998;10.440;2023-05-07T08:41:16;11.43;;;9.57;;
32106;SDS011;18622;51.998;10.440;2023-05-07T08:43:46;11.63;;;9.80;;
32106;SDS011;18622;51.998;10.440;2023-05-07T08:46:18;10.28;;;9.23;;
32106;SDS011;18622;51.998;10.440;2023-05-07T08:48:49;10.50;;;9.40;;
32106;SDS011;18622;51.998;10.440;2023-05-07T08:51:18;15.53;;;10.30;;
32106;SDS011;18622;51.998;10.440;2023-05-07T08:53:47;10.53;;;9.43;;
32106;SDS011;18622;51.998;10.440;2023-05-07T08:56:16;13.83;;;10.88;;
32106;SDS011;18622;51.998;10.440;2023-05-07T09:01:13;11.83;;;10.03;;
32106;SDS011;18622;51.998;10.440;2023-05-07T09:03:47;13.08;;;11.45;;
32106;SDS011;18622;51.998;10.440;2023-05-07T09:06:12;12.50;;;11.10;;
32106;SDS011;18622;51.998;10.440;2023-05-07T09:08:40;14.50;;;11.57;;
32106;SDS011;18622;51.998;10.440;2023-05-07T09:11:09;12.40;;;11.10;;
32106;SDS011;18622;51.998;10.440;2023-05-07T09:13:38;16.97;;;10.80;;
32106;SDS011;18622;51.998;10.440;2023-05-07T09:16:09;12.77;;;10.37;;
32106;SDS011;18622;51.998;10.440;2023-05-07T09:18:40;13.68;;;11.10;;
32106;SDS011;18622;51.998;10.440;2023-05-07T09:21:15;13.10;;;10.63;;
32106;SDS011;18622;51.998;10.440;2023-05-07T09:23:44;14.68;;;11.28;;
32106;SDS011;18622;51.998;10.440;2023-05-07T09:26:12;11.70;;;10.40;;
32106;SDS011;18622;51.998;10.440;2023-05-07T09:28:40;11.60;;;9.35;;
32106;SDS011;18622;51.998;10.440;2023-05-07T09:31:09;12.78;;;10.23;;
32106;SDS011;18622;51.998;10.440;2023-05-07T09:33:37;13.78;;;10.08;;
32106;SDS011;18622;51.998;10.440;2023-05-07T09:36:05;11.25;;;9.55;;
32106;SDS011;18622;51.998;10.440;2023-05-07T09:38:34;11.23;;;9.73;;
32106;SDS011;18622;51.998;10.440;2023-05-07T09:41:07;14.47;;;10.83;;
32106;SDS011;18622;51.998;10.440;2023-05-07T09:43:36;11.63;;;10.00;;
32106;SDS011;18622;51.998;10.440;2023-05-07T09:46:09;10.03;;;9.03;;
32106;SDS011;18622;51.998;10.440;2023-05-07T09:48:41;10.27;;;9.17;;
32106;SDS011;18622;51.998;10.440;2023-05-07T09:51:20;11.08;;;9.90;;
32106;SDS011;18622;51.998;10.440;2023-05-07T09:53:59;12.80;;;10.50;;
32106;SDS011;18622;51.998;10.440;2023-05-07T09:56:31;10.80;;;9.70;;
32106;SDS011;18622;51.998;10.440;2023-05-07T09:59:00;11.90;;;9.88;;
32106;SDS011;18622;51.998;10.440;2023-05-07T10:01:28;10.77;;;9.30;;
32106;SDS011;18622;51.998;10.440;2023-05-07T10:06:25;11.80;;;9.60;;
32106;SDS011;18622;51.998;10.440;2023-05-07T10:08:52;12.23;;;8.58;;
32106;SDS011;18622;51.998;10.440;2023-05-07T10:11:21;10.88;;;9.13;;
32106;SDS011;18622;51.998;10.440;2023-05-07T10:13:49;9.60;;;8.18;;
32106;SDS011;18622;51.998;10.440;2023-05-07T10:16:19;8.78;;;7.58;;
32106;SDS011;18622;51.998;10.440;2023-05-07T10:18:48;8.60;;;7.62;;
32106;SDS011;18622;51.998;10.440;2023-05-07T10:21:18;8.58;;;7.78;;
32106;SDS011;18622;51.998;10.440;2023-05-07T10:26:18;9.03;;;7.05;;
32106;SDS011;18622;51.998;10.440;2023-05-07T10:28:49;8.53;;;7.60;;
32106;SDS011;18622;51.998;10.440;2023-05-07T10:31:35;8.05;;;7.22;;
32106;SDS011;18622;51.998;10.440;2023-05-07T10:34:15;9.63;;;8.63;;
32106;SDS011;18622;51.998;10.440;2023-05-07T10:36:44;9.13;;;8.03;;
32106;SDS011;18622;51.998;10.440;2023-05-07T10:39:12;7.10;;;6.40;;
32106;SDS011;18622;51.998;10.440;2023-05-07T10:41:40;8.63;;;7.40;;
32106;SDS011;18622;51.998;10.440;2023-05-07T10:44:07;8.17;;;7.37;;
32106;SDS011;18622;51.998;10.440;2023-05-07T10:46:35;7.43;;;6.73;;
32106;SDS011;18622;51.998;10.440;2023-05-07T10:56:41;6.60;;;6.00;;
32106;SDS011;18622;51.998;10.440;2023-05-07T11:01:58;6.13;;;5.50;;
32106;SDS011;18622;51.998;10.440;2023-05-07T11:04:28;6.20;;;5.50;;
32106;SDS011;18622;51.998;10.440;2023-05-07T11:10:21;5.37;;;4.85;;
32106;SDS011;18622;51.998;10.440;2023-05-07T11:12:12;6.10;;;5.50;;
32106;SDS011;18622;51.998;10.440;2023-05-07T11:14:42;5.97;;;4.87;;
32106;SDS011;18622;51.998;10.440;2023-05-07T11:17:09;5.15;;;4.65;;
32106;SDS011;18622;51.998;10.440;2023-05-07T11:19:53;4.90;;;4.43;;
32106;SDS011;18622;51.998;10.440;2023-05-07T11:22:40;6.83;;;4.90;;
32106;SDS011;18622;51.998;10.440;2023-05-07T11:24:59;7.33;;;5.37;;
32106;SDS011;18622;51.998;10.440;2023-05-07T11:27:27;5.30;;;4.80;;
32106;SDS011;18622;51.998;10.440;2023-05-07T11:29:56;5.53;;;5.03;;
32106;SDS011;18622;51.998;10.440;2023-05-07T11:32:24;5.60;;;5.10;;
32106;SDS011;18622;51.998;10.440;2023-05-07T11:34:54;5.35;;;4.85;;
32106;SDS011;18622;51.998;10.440;2023-05-07T11:37:23;5.90;;;5.20;;
32106;SDS011;18622;51.998;10.440;2023-05-07T11:40:04;5.67;;;5.17;;
32106;SDS011;18622;51.998;10.440;2023-05-07T11:42:34;7.17;;;5.17;;
32106;SDS011;18622;51.998;10.440;2023-05-07T11:45:04;6.77;;;4.93;;
32106;SDS011;18622;51.998;10.440;2023-05-07T11:47:32;6.47;;;4.67;;
32106;SDS011;18622;51.998;10.440;2023-05-07T11:50:03;5.90;;;5.40;;
32106;SDS011;18622;51.998;10.440;2023-05-07T11:52:33;5.00;;;4.60;;
32106;SDS011;18622;51.998;10.440;2023-05-07T11:55:01;5.80;;;5.30;;
32106;SDS011;18622;51.998;10.440;2023-05-07T11:57:30;5.20;;;4.78;;
32106;SDS011;18622;51.998;10.440;2023-05-07T12:00:00;7.23;;;5.03;;
32106;SDS011;18622;51.998;10.440;2023-05-07T12:02:30;8.57;;;5.57;;
32106;SDS011;18622;51.998;10.440;2023-05-07T12:05:00;6.17;;;5.57;;
32106;SDS011;18622;51.998;10.440;2023-05-07T12:07:28;6.00;;;5.50;;
32106;SDS011;18622;51.998;10.440;2023-05-07T12:09:57;6.33;;;5.70;;
32106;SDS011;18622;51.998;10.440;2023-05-07T12:12:25;5.80;;;5.30;;
32106;SDS011;18622;51.998;10.440;2023-05-07T12:14:53;6.20;;;5.60;;
32106;SDS011;18622;51.998;10.440;2023-05-07T12:17:21;5.90;;;5.40;;
32106;SDS011;18622;51.998;10.440;2023-05-07T12:19:49;6.33;;;5.77;;
32106;SDS011;18622;51.998;10.440;2023-05-07T12:22:18;7.47;;;5.20;;
32106;SDS011;18622;51.998;10.440;2023-05-07T12:24:47;5.57;;;5.13;;
32106;SDS011;18622;51.998;10.440;2023-05-07T12:27:16;6.47;;;5.33;;
32106;SDS011;18622;51.998;10.440;2023-05-07T12:29:47;6.30;;;5.75;;
32106;SDS011;18622;51.998;10.440;2023-05-07T12:32:15;5.65;;;5.22;;
32106;SDS011;18622;51.998;10.440;2023-05-07T12:34:44;8.65;;;6.97;;
32106;SDS011;18622;51.998;10.440;2023-05-07T12:37:12;5.70;;;5.20;;
32106;SDS011;18622;51.998;10.440;2023-05-07T12:39:59;6.97;;;5.60;;
32106;SDS011;18622;51.998;10.440;2023-05-07T12:42:36;6.70;;;5.40;;
32106;SDS011;18622;51.998;10.440;2023-05-07T12:45:11;5.67;;;5.17;;
32106;SDS011;18622;51.998;10.440;2023-05-07T12:47:45;5.50;;;5.00;;
32106;SDS011;18622;51.998;10.440;2023-05-07T12:50:13;6.07;;;5.53;;
32106;SDS011;18622;51.998;10.440;2023-05-07T12:52:43;6.67;;;5.53;;
32106;SDS011;18622;51.998;10.440;2023-05-07T12:55:12;5.30;;;4.80;;
32106;SDS011;18622;51.998;10.440;2023-05-07T12:57:43;11.73;;;6.47;;
32106;SDS011;18622;51.998;10.440;2023-05-07T13:00:12;6.20;;;5.70;;
32106;SDS011;18622;51.998;10.440;2023-05-07T13:02:41;5.97;;;5.47;;
32106;SDS011;18622;51.998;10.440;2023-05-07T13:05:12;6.50;;;5.97;;
32106;SDS011;18622;51.998;10.440;2023-05-07T13:07:40;7.40;;;6.30;;
32106;SDS011;18622;51.998;10.440;2023-05-07T13:10:08;6.03;;;5.43;;
32106;SDS011;18622;51.998;10.440;2023-05-07T13:12:35;7.62;;;6.10;;
32106;SDS011;18622;51.998;10.440;2023-05-07T13:15:03;7.23;;;6.53;;
32106;SDS011;18622;51.998;10.440;2023-05-07T13:17:31;6.80;;;6.20;;
32106;SDS011;18622;51.998;10.440;2023-05-07T13:19:59;7.60;;;6.87;;
32106;SDS011;18622;51.998;10.440;2023-05-07T13:22:27;7.97;;;7.20;;
32106;SDS011;18622;51.998;10.440;2023-05-07T13:24:55;7.23;;;6.43;;
32106;SDS011;18622;51.998;10.440;2023-05-07T13:27:23;8.40;;;7.27;;
32106;SDS011;18622;51.998;10.440;2023-05-07T13:29:50;9.57;;;7.53;;
32106;SDS011;18622;51.998;10.440;2023-05-07T13:32:18;8.27;;;7.47;;
32106;SDS011;18622;51.998;10.440;2023-05-07T13:34:46;9.17;;;7.43;;
32106;SDS011;18622;51.998;10.440;2023-05-07T13:37:14;8.50;;;7.70;;
32106;SDS011;18622;51.998;10.440;2023-05-07T13:39:42;8.67;;;7.30;;
32106;SDS011;18622;51.998;10.440;2023-05-07T13:42:10;8.83;;;8.03;;
32106;SDS011;18622;51.998;10.440;2023-05-07T13:44:38;8.53;;;7.73;;
32106;SDS011;18622;51.998;10.440;2023-05-07T13:47:06;10.63;;;8.23;;
32106;SDS011;18622;51.998;10.440;2023-05-07T13:49:34;8.60;;;7.80;;
32106;SDS011;18622;51.998;10.440;2023-05-07T13:52:02;8.17;;;7.37;;
32106;SDS011;18622;51.998;10.440;2023-05-07T13:54:30;7.60;;;6.90;;
32106;SDS011;18622;51.998;10.440;2023-05-07T13:56:57;7.97;;;7.07;;
32106;SDS011;18622;51.998;10.440;2023-05-07T13:59:25;7.77;;;7.07;;
32106;SDS011;18622;51.998;10.440;2023-05-07T14:01:53;8.23;;;6.53;;
32106;SDS011;18622;51.998;10.440;2023-05-07T14:04:21;6.73;;;6.10;;
32106;SDS011;18622;51.998;10.440;2023-05-07T14:06:49;8.47;;;7.20;;
32106;SDS011;18622;51.998;10.440;2023-05-07T14:09:17;8.30;;;7.50;;
32106;SDS011;18622;51.998;10.440;2023-05-07T14:11:44;9.77;;;8.77;;
32106;SDS011;18622;51.998;10.440;2023-05-07T14:14:13;9.85;;;7.85;;
32106;SDS011;18622;51.998;10.440;2023-05-07T14:16:41;11.00;;;8.17;;
32106;SDS011;18622;51.998;10.440;2023-05-07T14:19:08;8.67;;;7.77;;
32106;SDS011;18622;51.998;10.440;2023-05-07T14:21:36;8.73;;;7.67;;
32106;SDS011;18622;51.998;10.440;2023-05-07T14:24:06;9.47;;;7.77;;
32106;SDS011;18622;51.998;10.440;2023-05-07T14:26:36;9.63;;;8.43;;
32106;SDS011;18622;51.998;10.440;2023-05-07T14:29:04;9.10;;;8.20;;
32106;SDS011;18622;51.998;10.440;2023-05-07T14:31:32;8.90;;;8.10;;
32106;SDS011;18622;51.998;10.440;2023-05-07T14:34:00;10.13;;;8.73;;
32106;SDS011;18622;51.998;10.440;2023-05-07T14:36:28;9.47;;;8.57;;
32106;SDS011;18622;51.998;10.440;2023-05-07T14:38:57;10.98;;;9.03;;
32106;SDS011;18622;51.998;10.440;2023-05-07T14:41:25;9.03;;;8.23;;
32106;SDS011;18622;51.998;10.440;2023-05-07T14:43:53;9.00;;;8.20;;
32106;SDS011;18622;51.998;10.440;2023-05-07T14:46:21;9.50;;;8.60;;
32106;SDS011;18622;51.998;10.440;2023-05-07T14:48:49;9.43;;;8.53;;
32106;SDS011;18622;51.998;10.440;2023-05-07T14:51:17;11.80;;;8.60;;
32106;SDS011;18622;51.998;10.440;2023-05-07T14:53:45;9.80;;;8.90;;
32106;SDS011;18622;51.998;10.440;2023-05-07T14:56:13;9.47;;;8.63;;
32106;SDS011;18622;51.998;10.440;2023-05-07T14:58:40;8.67;;;7.87;;
32106;SDS011;18622;51.998;10.440;2023-05-07T15:01:08;8.70;;;7.90;;
32106;SDS011;18622;51.998;10.440;2023-05-07T15:03:36;9.23;;;8.33;;
32106;SDS011;18622;51.998;10.440;2023-05-07T15:06:04;8.60;;;7.70;;
32106;SDS011;18622;51.998;10.440;2023-05-07T15:08:32;8.17;;;7.47;;
32106;SDS011;18622;51.998;10.440;2023-05-07T15:10:59;8.17;;;7.37;;
32106;SDS011;18622;51.998;10.440;2023-05-07T15:13:27;8.37;;;7.67;;
32106;SDS011;18622;51.998;10.440;2023-05-07T15:15:55;8.07;;;7.37;;
32106;SDS011;18622;51.998;10.440;2023-05-07T15:18:23;8.67;;;7.87;;
32106;SDS011;18622;51.998;10.440;2023-05-07T15:20:51;8.20;;;7.50;;
32106;SDS011;18622;51.998;10.440;2023-05-07T15:23:18;7.97;;;7.27;;
32106;SDS011;18622;51.998;10.440;2023-05-07T15:25:46;8.07;;;7.37;;
32106;SDS011;18622;51.998;10.440;2023-05-07T15:28:14;7.00;;;6.40;;
32106;SDS011;18622;51.998;10.440;2023-05-07T15:30:42;7.07;;;6.37;;
32106;SDS011;18622;51.998;10.440;2023-05-07T15:33:09;7.17;;;6.17;;
32106;SDS011;18622;51.998;10.440;2023-05-07T15:35:37;7.40;;;6.37;;
32106;SDS011;18622;51.998;10.440;2023-05-07T15:38:05;7.40;;;6.70;;
32106;SDS011;18622;51.998;10.440;2023-05-07T15:40:34;7.55;;;6.12;;
32106;SDS011;18622;51.998;10.440;2023-05-07T15:43:04;7.65;;;6.45;;
32106;SDS011;18622;51.998;10.440;2023-05-07T15:45:32;6.50;;;5.90;;
32106;SDS011;18622;51.998;10.440;2023-05-07T15:47:59;6.37;;;5.77;;
32106;SDS011;18622;51.998;10.440;2023-05-07T15:50:27;8.10;;;5.97;;
32106;SDS011;18622;51.998;10.440;2023-05-07T15:52:55;6.03;;;5.53;;
32106;SDS011;18622;51.998;10.440;2023-05-07T15:55:23;6.70;;;6.00;;
32106;SDS011;18622;51.998;10.440;2023-05-07T15:57:51;7.73;;;6.00;;
32106;SDS011;18622;51.998;10.440;2023-05-07T16:00:20;6.08;;;5.55;;
32106;SDS011;18622;51.998;10.440;2023-05-07T16:02:47;7.17;;;5.63;;
32106;SDS011;18622;51.998;10.440;2023-05-07T16:05:15;10.13;;;5.97;;
32106;SDS011;18622;51.998;10.440;2023-05-07T16:07:43;5.83;;;5.23;;
32106;SDS011;18622;51.998;10.440;2023-05-07T16:10:11;6.43;;;5.77;;
32106;SDS011;18622;51.998;10.440;2023-05-07T16:12:38;6.47;;;5.83;;
32106;SDS011;18622;51.998;10.440;2023-05-07T16:15:06;8.03;;;7.23;;
32106;SDS011;18622;51.998;10.440;2023-05-07T16:17:34;7.17;;;6.47;;
32106;SDS011;18622;51.998;10.440;2023-05-07T16:20:02;7.37;;;6.67;;
32106;SDS011;18622;51.998;10.440;2023-05-07T16:22:31;7.67;;;6.90;;
32106;SDS011;18622;51.998;10.440;2023-05-07T16:24:59;7.47;;;6.37;;
32106;SDS011;18622;51.998;10.440;2023-05-07T16:27:27;8.83;;;7.17;;
32106;SDS011;18622;51.998;10.440;2023-05-07T16:29:55;7.47;;;6.67;;
32106;SDS011;18622;51.998;10.440;2023-05-07T16:32:23;8.63;;;6.50;;
32106;SDS011;18622;51.998;10.440;2023-05-07T16:34:52;8.20;;;6.97;;
32106;SDS011;18622;51.998;10.440;2023-05-07T16:37:20;7.67;;;6.67;;
32106;SDS011;18622;51.998;10.440;2023-05-07T16:39:48;7.90;;;7.10;;
32106;SDS011;18622;51.998;10.440;2023-05-07T16:42:16;8.00;;;7.20;;
32106;SDS011;18622;51.998;10.440;2023-05-07T16:44:43;8.43;;;7.33;;
32106;SDS011;18622;51.998;10.440;2023-05-07T16:47:11;11.30;;;9.70;;
32106;SDS011;18622;51.998;10.440;2023-05-07T16:49:39;8.93;;;7.53;;
32106;SDS011;18622;51.998;10.440;2023-05-07T16:52:07;9.03;;;7.93;;
32106;SDS011;18622;51.998;10.440;2023-05-07T16:54:35;7.63;;;6.93;;
32106;SDS011;18622;51.998;10.440;2023-05-07T16:57:02;8.73;;;7.40;;
32106;SDS011;18622;51.998;10.440;2023-05-07T16:59:30;8.53;;;7.53;;
32106;SDS011;18622;51.998;10.440;2023-05-07T17:01:58;12.43;;;7.77;;
32106;SDS011;18622;51.998;10.440;2023-05-07T17:04:26;9.23;;;7.60;;
32106;SDS011;18622;51.998;10.440;2023-05-07T17:06:54;10.80;;;7.60;;
32106;SDS011;18622;51.998;10.440;2023-05-07T17:09:22;8.67;;;7.10;;
32106;SDS011;18622;51.998;10.440;2023-05-07T17:11:50;8.80;;;6.20;;
32106;SDS011;18622;51.998;10.440;2023-05-07T17:14:18;7.60;;;6.80;;
32106;SDS011;18622;51.998;10.440;2023-05-07T17:16:46;10.93;;;8.85;;
32106;SDS011;18622;51.998;10.440;2023-05-07T17:19:14;7.67;;;5.80;;
32106;SDS011;18622;51.998;10.440;2023-05-07T17:21:42;6.73;;;6.00;;
32106;SDS011;18622;51.998;10.440;2023-05-07T17:24:09;6.10;;;5.50;;
32106;SDS011;18622;51.998;10.440;2023-05-07T17:26:37;7.87;;;5.67;;
32106;SDS011;18622;51.998;10.440;2023-05-07T17:29:07;6.72;;;6.03;;
32106;SDS011;18622;51.998;10.440;2023-05-07T17:31:35;7.65;;;5.28;;
32106;SDS011;18622;51.998;10.440;2023-05-07T17:34:03;6.53;;;5.70;;
32106;SDS011;18622;51.998;10.440;2023-05-07T17:36:30;7.87;;;6.93;;
32106;SDS011;18622;51.998;10.440;2023-05-07T17:38:58;8.63;;;6.43;;
32106;SDS011;18622;51.998;10.440;2023-05-07T17:41:26;7.00;;;6.20;;
32106;SDS011;18622;51.998;10.440;2023-05-07T17:43:54;7.87;;;6.57;;
32106;SDS011;18622;51.998;10.440;2023-05-07T17:46:22;10.90;;;6.07;;
32106;SDS011;18622;51.998;10.440;2023-05-07T17:48:49;7.40;;;6.30;;
32106;SDS011;18622;51.998;10.440;2023-05-07T17:51:17;7.40;;;5.97;;
32106;SDS011;18622;51.998;10.440;2023-05-07T17:53:45;7.70;;;5.90;;
32106;SDS011;18622;51.998;10.440;2023-05-07T17:56:13;9.03;;;6.27;;
32106;SDS011;18622;51.998;10.440;2023-05-07T17:58:40;11.53;;;6.13;;
32106;SDS011;18622;51.998;10.440;2023-05-07T18:01:08;6.97;;;5.77;;
32106;SDS011;18622;51.998;10.440;2023-05-07T18:03:36;6.13;;;5.10;;
32106;SDS011;18622;51.998;10.440;2023-05-07T18:06:04;7.87;;;6.07;;
32106;SDS011;18622;51.998;10.440;2023-05-07T18:08:33;8.73;;;6.27;;
32106;SDS011;18622;51.998;10.440;2023-05-07T18:11:01;6.50;;;5.70;;
32106;SDS011;18622;51.998;10.440;2023-05-07T18:13:30;9.25;;;6.95;;
32106;SDS011;18622;51.998;10.440;2023-05-07T18:15:58;12.27;;;6.73;;
32106;SDS011;18622;51.998;10.440;2023-05-07T18:18:26;10.63;;;6.70;;
32106;SDS011;18622;51.998;10.440;2023-05-07T18:20:56;8.85;;;5.65;;
32106;SDS011;18622;51.998;10.440;2023-05-07T18:23:24;9.35;;;5.55;;
32106;SDS011;18622;51.998;10.440;2023-05-07T18:25:52;5.67;;;5.07;;
32106;SDS011;18622;51.998;10.440;2023-05-07T18:28:19;8.13;;;5.20;;
32106;SDS011;18622;51.998;10.440;2023-05-07T18:30:47;9.13;;;5.57;;
32106;SDS011;18622;51.998;10.440;2023-05-07T18:33:15;6.93;;;4.87;;
32106;SDS011;18622;51.998;10.440;2023-05-07T18:35:43;6.63;;;5.23;;
32106;SDS011;18622;51.998;10.440;2023-05-07T18:38:11;5.10;;;4.60;;
32106;SDS011;18622;51.998;10.440;2023-05-07T18:40:38;6.83;;;4.87;;
32106;SDS011;18622;51.998;10.440;2023-05-07T18:43:08;8.98;;;5.10;;
32106;SDS011;18622;51.998;10.440;2023-05-07T18:45:36;5.90;;;4.55;;
32106;SDS011;18622;51.998;10.440;2023-05-07T18:48:04;8.07;;;6.00;;
32106;SDS011;18622;51.998;10.440;2023-05-07T18:50:32;8.43;;;4.80;;
32106;SDS011;18622;51.998;10.440;2023-05-07T18:53:00;12.07;;;5.43;;
32106;SDS011;18622;51.998;10.440;2023-05-07T18:55:28;6.03;;;5.20;;
32106;SDS011;18622;51.998;10.440;2023-05-07T18:57:56;6.67;;;5.00;;
32106;SDS011;18622;51.998;10.440;2023-05-07T19:00:24;5.27;;;4.77;;
32106;SDS011;18622;51.998;10.440;2023-05-07T19:02:52;6.57;;;5.73;;
32106;SDS011;18622;51.998;10.440;2023-05-07T19:05:19;7.53;;;5.63;;
32106;SDS011;18622;51.998;10.440;2023-05-07T19:07:47;8.60;;;4.83;;
32106;SDS011;18622;51.998;10.440;2023-05-07T19:10:15;6.35;;;5.10;;
32106;SDS011;18622;51.998;10.440;2023-05-07T19:12:43;6.33;;;4.63;;
32106;SDS011;18622;51.998;10.440;2023-05-07T19:15:11;5.63;;;4.53;;
32106;SDS011;18622;51.998;10.440;2023-05-07T19:17:39;5.57;;;4.90;;
32106;SDS011;18622;51.998;10.440;2023-05-07T19:20:07;5.57;;;4.50;;
32106;SDS011;18622;51.998;10.440;2023-05-07T19:22:35;5.78;;;4.87;;
32106;SDS011;18622;51.998;10.440;2023-05-07T19:25:03;5.40;;;4.47;;
32106;SDS011;18622;51.998;10.440;2023-05-07T19:27:31;5.20;;;4.20;;
32106;SDS011;18622;51.998;10.440;2023-05-07T19:29:59;4.93;;;4.13;;
32106;SDS011;18622;51.998;10.440;2023-05-07T19:32:27;5.53;;;3.87;;
32106;SDS011;18622;51.998;10.440;2023-05-07T19:34:54;4.13;;;3.63;;
32106;SDS011;18622;51.998;10.440;2023-05-07T19:37:22;3.53;;;3.23;;
32106;SDS011;18622;51.998;10.440;2023-05-07T19:39:53;4.17;;;3.60;;
32106;SDS011;18622;51.998;10.440;2023-05-07T19:42:20;5.35;;;3.72;;
32106;SDS011;18622;51.998;10.440;2023-05-07T19:44:48;4.93;;;4.03;;
32106;SDS011;18622;51.998;10.440;2023-05-07T19:47:16;8.03;;;4.60;;
32106;SDS011;18622;51.998;10.440;2023-05-07T19:49:44;12.63;;;4.03;;
32106;SDS011;18622;51.998;10.440;2023-05-07T19:52:12;8.37;;;4.77;;
32106;SDS011;18622;51.998;10.440;2023-05-07T19:54:40;7.10;;;4.73;;
32106;SDS011;18622;51.998;10.440;2023-05-07T19:57:08;7.30;;;4.67;;
32106;SDS011;18622;51.998;10.440;2023-05-07T19:59:35;6.60;;;4.50;;
32106;SDS011;18622;51.998;10.440;2023-05-07T20:02:03;6.93;;;4.83;;
32106;SDS011;18622;51.998;10.440;2023-05-07T20:04:31;9.75;;;5.15;;
32106;SDS011;18622;51.998;10.440;2023-05-07T20:07:01;10.08;;;5.92;;
32106;SDS011;18622;51.998;10.440;2023-05-07T20:09:29;5.97;;;5.37;;
32106;SDS011;18622;51.998;10.440;2023-05-07T20:11:57;7.33;;;5.20;;
32106;SDS011;18622;51.998;10.440;2023-05-07T20:14:27;11.93;;;5.73;;
32106;SDS011;18622;51.998;10.440;2023-05-07T20:16:55;10.50;;;5.55;;
32106;SDS011;18622;51.998;10.440;2023-05-07T20:19:22;13.17;;;6.60;;
32106;SDS011;18622;51.998;10.440;2023-05-07T20:21:50;11.90;;;6.60;;
32106;SDS011;18622;51.998;10.440;2023-05-07T20:24:18;11.73;;;6.30;;
32106;SDS011;18622;51.998;10.440;2023-05-07T20:26:46;10.57;;;7.07;;
32106;SDS011;18622;51.998;10.440;2023-05-07T20:29:14;13.93;;;5.90;;
32106;SDS011;18622;51.998;10.440;2023-05-07T20:31:41;12.70;;;6.70;;
32106;SDS011;18622;51.998;10.440;2023-05-07T20:34:09;8.30;;;6.03;;
32106;SDS011;18622;51.998;10.440;2023-05-07T20:36:37;9.30;;;6.60;;
32106;SDS011;18622;51.998;10.440;2023-05-07T20:39:05;7.63;;;5.63;;
32106;SDS011;18622;51.998;10.440;2023-05-07T20:41:33;11.43;;;6.33;;
32106;SDS011;18622;51.998;10.440;2023-05-07T20:44:00;7.27;;;5.83;;
32106;SDS011;18622;51.998;10.440;2023-05-07T20:46:28;8.03;;;6.47;;
32106;SDS011;18622;51.998;10.440;2023-05-07T20:48:56;7.03;;;5.50;;
32106;SDS011;18622;51.998;10.440;2023-05-07T20:51:24;8.77;;;6.17;;
32106;SDS011;18622;51.998;10.440;2023-05-07T20:53:52;12.47;;;6.07;;
32106;SDS011;18622;51.998;10.440;2023-05-07T20:56:20;7.63;;;5.63;;
32106;SDS011;18622;51.998;10.440;2023-05-07T20:58:47;9.30;;;6.07;;
